• Join FlightAware (Why Join?)
  • Login
  • US Flag 
04:05AM EDT


 

Airport Tracker/Info


-or-


 

Live Flight TrackerFlight Track Log ✈ N855TA ✈ 14-Aug-2013 ✈ KEQY - KARW

Flight Track Log - Related Links

Times and Time Zones

All times are in EDT time to prevent confusion due to time zone crossing. See the N855TA flight status page for this flight to view local times or setup timezone preferences in your user account.

Time Position Orientation Groundspeed Altitude Reporting Facility
EDT Latitude Longitude Course Direction KTS MPH feet Rate Location/Type
11:39AM 34.8842 -80.6231 180° South 175 201 3,500  Level Atlanta Center
11:40AM 34.8444 -80.6222 179° South 174 200 3,900 480 Climbing Atlanta Center
11:41AM 34.7964 -80.6242 182° South 171 197 4,400 480 Climbing Atlanta Center
11:42AM 34.7506 -80.6258 182° South 165 190 4,900 480 Climbing Atlanta Center
11:44AM 34.6801 -80.6167 180° South  Level FlightAware Approximate
11:45AM 34.7550 -80.6167 180° South  Level FlightAware Approximate
11:51AM 34.3748 -80.6167 180° South  Level FlightAware Approximate
11:52AM 34.3312 -80.6167 180° South  Level FlightAware Approximate
11:53AM 34.2876 -80.6167 180° South  Level FlightAware Approximate
11:54AM 34.2439 -80.6167 180° South  Level FlightAware Approximate
11:55AM 34.2003 -80.6167 180° South  Level FlightAware Approximate
11:56AM 34.1567 -80.6167 180° South  Level FlightAware Approximate
11:57AM 34.1131 -80.6167 180° South  Level FlightAware Approximate
11:58AM 34.0695 -80.6167 180° South  Level FlightAware Approximate
11:59AM 34.0259 -80.6167 180° South  Level FlightAware Approximate
12:00PM 33.9823 -80.6167 180° South  Level FlightAware Approximate
12:01PM 33.9387 -80.6167 180° South  Level FlightAware Approximate
12:02PM 33.8951 -80.6167 180° South  Level FlightAware Approximate
12:03PM 33.8515 -80.6167 180° South  Level FlightAware Approximate
12:04PM 33.8078 -80.6167 180° South  Level FlightAware Approximate
12:05PM 33.7642 -80.6167 180° South  Level FlightAware Approximate
12:06PM 33.7206 -80.6167 180° South  Level FlightAware Approximate
12:07PM 33.6770 -80.6167 180° South  Level FlightAware Approximate
12:08PM 33.6334 -80.6167 180° South  Level FlightAware Approximate
12:09PM 33.5898 -80.6167 180° South  Level FlightAware Approximate
12:10PM 33.5462 -80.6167 180° South  Level FlightAware Approximate
12:11PM 33.5026 -80.6167 180° South  Level FlightAware Approximate
12:12PM 33.4590 -80.6167 180° South  Level FlightAware Approximate
12:13PM 33.4154 -80.6167 180° South  Level FlightAware Approximate
12:14PM 33.3717 -80.6167 180° South  Level FlightAware Approximate
12:15PM 33.3281 -80.6167 180° South  Level FlightAware Approximate
12:16PM 33.2844 -80.6167 180° South  Level FlightAware Approximate
12:17PM 33.2408 -80.6167 180° South  Level FlightAware Approximate
12:18PM 33.1972 -80.6167 180° South  Level FlightAware Approximate
12:19PM 33.1536 -80.6167 180° South  Level FlightAware Approximate
12:20PM 33.1100 -80.6167 180° South  Level FlightAware Approximate
12:21PM 33.0664 -80.6167 180° South  Level FlightAware Approximate
12:22PM 33.0228 -80.6167 180° South  Level FlightAware Approximate
12:23PM 32.9792 -80.6167 180° South  Level FlightAware Approximate
12:24PM 32.9356 -80.6167 180° South  Level FlightAware Approximate
12:25PM 32.8919 -80.6167 180° South  Level FlightAware Approximate
12:26PM 32.8483 -80.6167 180° South  Level FlightAware Approximate
12:27PM 32.8047 -80.6167 180° South  Level FlightAware Approximate
12:28PM 32.7611 -80.6167 180° South  Level FlightAware Approximate
12:29PM 32.7175 -80.6167 180° South  Level FlightAware Approximate
12:30PM 32.6739 -80.6193 185° South  Level FlightAware Approximate
12:31PM 32.6305 -80.6236 185° South  Level FlightAware Approximate
12:32PM 32.5870 -80.6280 185° South  Level FlightAware Approximate
12:33PM 32.5436 -80.6323 185° South  Level FlightAware Approximate
12:34PM 32.5000 -80.6333 180° South  Level FlightAware Approximate
12:35PM 32.4564 -80.6333 180° South  Level FlightAware Approximate
12:36PM 32.4128 -80.6333 180° South  Level FlightAware Approximate
12:37PM 32.4122 -80.6344 180° South  Level Estimated
12:38PM 32.4122 -80.6344 180° South  Level Estimated
12:39PM 32.4122 -80.6344 180° South  Level Estimated